Wednesday, December 12, 2018, 11:10 PM EST
Back to Local

KBAF, Westfield Barnes Municipal

Location: Westfield, MA, United States Lat: 42.167
Local Time: 11:10 PM EST ( 4:10 GMT) Lon: -72.717
Time Zone: US/Eastern Elev: 272 ft

Show me the last for .
Show Decoded

2018-12-12 22:53 METAR KBAF 130353Z AUTO 02007KT 10SM CLR M05/M13 A3030 RMK AO2 SLP267 T10501133
                 =
2018-12-12 21:53 METAR KBAF 130253Z 03004KT 10SM CLR M04/M11 A3029 RMK AO2 SLP264 T10441111 51026
                 =
2018-12-12 20:53 METAR KBAF 130153Z 03009KT 10SM CLR M03/M10 A3027 RMK AO2 SLP256 T10331100 =
2018-12-12 19:53 METAR KBAF 130053Z 03006KT 10SM CLR M03/M10 A3024 RMK AO2 SLP249 T10281100 =
2018-12-12 18:53 METAR KBAF 122353Z 04006KT 10SM CLR M02/M09 A3021 RMK AO2 SLP238 T10171094 10033
                 21028 51028 =
2018-12-12 17:53 METAR KBAF 122253Z 01007KT 10SM CLR M01/M08 A3018 RMK AO2 SLP226 T10111083 =
2018-12-12 16:53 METAR KBAF 122153Z 01005KT 10SM CLR M02/M09 A3017 RMK AO2 SLP222 T10221094 =
2018-12-12 15:53 METAR KBAF 122053Z 04005KT 10SM CLR 01/M09 A3013 RMK AO2 SLP210 T00061089 53019
                 =
2018-12-12 14:53 METAR KBAF 121953Z 35010KT 10SM CLR 03/M09 A3009 RMK AO2 SLP195 T00281089 =
2018-12-12 13:53 METAR KBAF 121853Z 31013G17KT 10SM SCT048 02/M09 A3008 RMK AO2 SLP191 T00221089
                 =
2018-12-12 12:53 METAR KBAF 121753Z 33005KT 10SM OVC045 03/M08 A3007 RMK AO2 SLP191 T00281083
                 10033 21022 53003 =
2018-12-12 11:53 METAR KBAF 121653Z 30010KT 10SM BKN050 03/M09 A3006 RMK AO2 SLP186 T00281089 =
2018-12-12 10:53 METAR KBAF 121553Z 32007KT 10SM CLR 02/M08 A3007 RMK AO2 SLP189 T00221083 =
2018-12-12 09:53 METAR KBAF 121453Z 33012KT 10SM CLR 01/M08 A3006 RMK AO2 SLP188 T00061083 53021
                 =
2018-12-12 08:53 METAR KBAF 121353Z 32011KT 10SM CLR 00/M08 A3004 RMK AO2 SLP179 T00001078 =
2018-12-12 07:53 METAR KBAF 121253Z 32010G19KT 10SM CLR M02/M08 A3002 RMK AO2 SLP173 T10171078 =
2018-12-12 06:53 METAR KBAF 121153Z 30009KT 10SM SCT035 BKN042 BKN070 M02/M07 A3000 RMK AO2
                 SLP167 T10221067 11017 21044 53022 =
2018-12-12 05:53 METAR KBAF 121053Z AUTO 36003KT 10SM BKN070 M02/M07 A2997 RMK AO2 SLP158
                 T10221072 =
2018-12-12 04:53 METAR KBAF 120953Z AUTO 05004KT 10SM OVC080 M02/M08 A2995 RMK AO2 SLP147
                 T10221078 =
2018-12-12 03:53 METAR KBAF 120853Z AUTO 02004KT 10SM SCT048 OVC070 M02/M08 A2993 RMK AO2 SLP143
                 T10221078 53008 =
2018-12-12 02:53 METAR KBAF 120753Z AUTO 35006KT 10SM SCT060 BKN070 OVC120 M03/M08 A2993 RMK AO2
                 SLP141 T10331083 =
2018-12-12 01:53 METAR KBAF 120653Z AUTO 33004KT 10SM BKN070 M03/M08 A2992 RMK AO2 SLP137
                 T10331083 =
2018-12-12 00:53 METAR KBAF 120553Z AUTO 36006KT 10SM FEW120 M04/M08 A2991 RMK AO2 SLP136
                 T10391083 11017 21056 56007 =
2018-12-11 23:53 METAR KBAF 120453Z AUTO 32006KT 10SM OVC055 M02/M08 A2991 RMK AO2 SLP137
                 T10221078 400171128 =

Support USWX by starting your Amazon purchase here.